Time;durP1;ratioP1;P1;durP2;ratioP2;P2;SDS_P1;SDS_P2;PMS_P1;PMS_P2;Temp;Humidity;BMP_temperature;BMP_pressure;BME280_temperature;BME280_humidity;BME280_pressure;Samples;Min_cycle;Max_cycle;Signal;HPM_P1;HPM_P2
2022/10/15 00:00:40;;;;;;;1.77;0.60;;;13.10;99.90;;;;;;6258077;22;20410;-85
2022/10/15 00:03:30;;;;;;;0.70;0.70;;;13.10;99.90;;;;;;6281042;22;20024;-85
2022/10/15 00:06:20;;;;;;;1.40;0.60;;;13.10;99.90;;;;;;6258472;22;20046;-87
2022/10/15 00:09:07;;;;;;;1.05;0.70;;;13.10;99.90;;;;;;6256912;22;20034;-87
2022/10/15 00:11:55;;;;;;;1.23;0.75;;;13.10;99.90;;;;;;6279240;22;20134;-86
2022/10/15 00:14:42;;;;;;;1.75;0.93;;;13.10;99.90;;;;;;6256055;22;20034;-87
2022/10/15 00:17:31;;;;;;;1.77;0.70;;;13.10;99.90;;;;;;6236940;22;20114;-87
2022/10/15 00:20:19;;;;;;;0.90;0.80;;;13.10;99.90;;;;;;6259387;22;20118;-89
2022/10/15 00:23:07;;;;;;;3.88;0.90;;;13.10;99.90;;;;;;6278947;22;20019;-87
2022/10/15 00:26:06;;;;;;;0.70;0.70;;;13.20;99.90;;;;;;6265050;22;20019;-87
2022/10/15 00:28:58;;;;;;;3.58;0.65;;;13.10;99.90;;;;;;6269133;22;20023;-88
2022/10/15 00:31:45;;;;;;;4.68;0.82;;;13.20;99.90;;;;;;6270883;22;20076;-89
2022/10/15 00:34:33;;;;;;;1.05;0.70;;;13.20;99.90;;;;;;6251575;22;20024;-89
2022/10/15 00:37:21;;;;;;;2.72;0.60;;;13.20;99.90;;;;;;6270699;22;20080;-90
2022/10/15 00:40:15;;;;;;;0.85;0.70;;;13.20;99.90;;;;;;6294129;22;20032;-88
2022/10/15 00:43:08;;;;;;;1.30;0.57;;;13.20;99.90;;;;;;6271576;22;20305;-86
2022/10/15 00:45:57;;;;;;;0.90;0.65;;;13.20;99.90;;;;;;6276861;22;20079;-88
2022/10/15 00:48:48;;;;;;;0.73;0.70;;;13.20;99.90;;;;;;6275535;22;20071;-84
2022/10/15 00:51:41;;;;;;;1.00;0.68;;;13.20;99.90;;;;;;6275521;22;20050;-85
2022/10/15 00:54:33;;;;;;;1.55;0.68;;;13.20;99.90;;;;;;6300586;22;20028;-85
2022/10/15 00:57:21;;;;;;;1.90;0.60;;;13.20;99.90;;;;;;6298469;22;20042;-87
2022/10/15 01:00:14;;;;;;;0.77;0.70;;;13.20;99.90;;;;;;6304924;22;20011;-86
2022/10/15 01:03:01;;;;;;;1.23;0.75;;;13.20;99.90;;;;;;6283982;22;20054;-87
2022/10/15 01:05:51;;;;;;;0.85;0.70;;;13.20;99.90;;;;;;6282505;22;20012;-88
2022/10/15 01:08:38;;;;;;;0.88;0.60;;;13.20;99.90;;;;;;6306796;22;20047;-85
2022/10/15 01:11:41;;;;;;;1.08;0.80;;;13.20;99.90;;;;;;6282779;22;20023;-86
2022/10/15 01:14:50;;;;;;;1.42;0.60;;;13.30;99.90;;;;;;6283740;22;20038;-86
2022/10/15 01:17:51;;;;;;;0.80;0.70;;;13.30;99.90;;;;;;6282017;22;20029;-87
2022/10/15 01:21:02;;;;;;;1.52;0.52;;;13.30;99.90;;;;;;6281094;22;20012;-85
2022/10/15 01:24:26;;;;;;;2.88;0.80;;;13.30;99.90;;;;;;6280322;22;20008;-86
2022/10/15 01:27:27;;;;;;;1.77;0.68;;;13.30;99.90;;;;;;6279906;22;20022;-85
2022/10/15 01:30:23;;;;;;;2.50;0.70;;;13.30;99.90;;;;;;6278365;22;20059;-87
2022/10/15 01:33:25;;;;;;;0.82;0.70;;;13.30;99.90;;;;;;6305318;22;20015;-85
2022/10/15 01:36:32;;;;;;;3.22;0.70;;;13.30;99.90;;;;;;6280688;22;20040;-86
2022/10/15 01:39:32;;;;;;;3.05;0.52;;;13.30;99.90;;;;;;6303668;22;20091;-87
2022/10/15 01:42:29;;;;;;;0.50;0.50;;;13.30;99.90;;;;;;6279161;22;20043;-86
2022/10/15 01:45:24;;;;;;;0.70;0.70;;;13.30;99.90;;;;;;6300348;22;20023;-86
2022/10/15 01:48:12;;;;;;;1.08;0.63;;;13.30;99.90;;;;;;6277572;22;20047;-87
2022/10/15 01:51:06;;;;;;;0.93;0.70;;;13.30;99.90;;;;;;6299135;22;20035;-86
2022/10/15 01:53:54;;;;;;;1.00;0.70;;;13.40;99.90;;;;;;6302224;22;20023;-87
2022/10/15 01:56:48;;;;;;;1.63;0.70;;;13.40;99.90;;;;;;6299945;22;20012;-85
2022/10/15 01:59:35;;;;;;;0.40;0.40;;;13.40;99.90;;;;;;6267561;22;20081;-87
2022/10/15 02:02:23;;;;;;;0.63;0.40;;;13.40;99.90;;;;;;6269144;22;20043;-87
2022/10/15 02:05:28;;;;;;;0.50;0.50;;;13.40;99.90;;;;;;6290872;22;20043;-88
2022/10/15 02:08:29;;;;;;;1.75;0.60;;;13.50;99.90;;;;;;6269318;22;20023;-88
2022/10/15 02:11:18;;;;;;;0.50;0.50;;;13.50;99.90;;;;;;6248131;22;20079;-89
2022/10/15 02:14:15;;;;;;;0.57;0.50;;;13.50;99.90;;;;;;6291947;22;20355;-88
2022/10/15 02:17:07;;;;;;;0.55;0.50;;;13.50;99.90;;;;;;6290439;22;20059;-89
2022/10/15 02:19:59;;;;;;;;;;;13.50;99.90;;;;;;6266305;22;20015;-88
2022/10/15 02:23:00;;;;;;;3.88;0.68;;;13.50;99.90;;;;;;6286300;22;19915;-89
2022/10/15 02:25:53;;;;;;;2.75;0.40;;;13.50;99.90;;;;;;6260537;22;20020;-88
2022/10/15 02:28:46;;;;;;;1.00;0.52;;;13.50;99.90;;;;;;6237376;22;20038;-88
2022/10/15 02:31:37;;;;;;;1.30;0.57;;;13.50;99.90;;;;;;6280894;22;20028;-89
2022/10/15 02:34:28;;;;;;;0.50;0.50;;;13.60;99.90;;;;;;6255827;22;20024;-88
2022/10/15 02:37:22;;;;;;;2.15;0.75;;;13.60;99.90;;;;;;6279271;22;20095;-87
2022/10/15 02:40:12;;;;;;;0.63;0.60;;;13.60;99.90;;;;;;6258405;22;20381;-91
2022/10/15 02:43:04;;;;;;;2.30;0.80;;;13.70;99.90;;;;;;6276928;22;20422;-88
2022/10/15 02:45:52;;;;;;;0.52;0.52;;;13.70;99.90;;;;;;6255858;22;20030;-90
2022/10/15 02:48:39;;;;;;;2.40;0.75;;;13.70;99.90;;;;;;6254951;22;20028;-87
2022/10/15 02:51:31;;;;;;;6.63;0.80;;;13.70;99.90;;;;;;6256949;22;20037;-88
2022/10/15 02:54:19;;;;;;;1.55;0.70;;;13.80;99.90;;;;;;6255182;22;20294;-90
2022/10/15 02:57:08;;;;;;;4.38;0.70;;;13.80;99.90;;;;;;6256237;22;20023;-88
2022/10/15 02:59:55;;;;;;;1.08;0.70;;;13.80;99.90;;;;;;6280494;22;20090;-88
2022/10/15 03:02:43;;;;;;;0.50;0.50;;;13.80;99.90;;;;;;6278550;22;20019;-86
2022/10/15 03:05:30;;;;;;;1.00;0.50;;;13.80;99.90;;;;;;6254989;22;20027;-87
2022/10/15 03:08:19;;;;;;;0.93;0.40;;;13.80;99.90;;;;;;6280045;22;20036;-87
2022/10/15 03:11:08;;;;;;;0.40;0.40;;;13.80;99.90;;;;;;6256894;22;20150;-87
2022/10/15 03:13:56;;;;;;;0.50;0.40;;;13.90;99.90;;;;;;6280756;22;20028;-88
2022/10/15 03:16:54;;;;;;;2.70;0.47;;;13.90;99.90;;;;;;6238583;22;20026;-85
2022/10/15 03:19:41;;;;;;;0.57;0.57;;;13.90;99.90;;;;;;6261262;22;20130;-87
2022/10/15 03:22:30;;;;;;;1.55;0.57;;;13.90;99.90;;;;;;6279798;22;20023;-87
2022/10/15 03:25:18;;;;;;;0.52;0.52;;;13.90;99.90;;;;;;6279313;22;20020;-86
2022/10/15 03:28:07;;;;;;;4.65;0.60;;;13.90;99.90;;;;;;6257815;22;20066;-87
2022/10/15 03:30:55;;;;;;;0.77;0.60;;;13.90;99.90;;;;;;6266750;22;20027;-86
2022/10/15 03:33:42;;;;;;;0.73;0.60;;;13.90;99.90;;;;;;6266526;22;20023;-86
2022/10/15 03:36:29;;;;;;;0.60;0.60;;;14.00;99.90;;;;;;6294938;22;20079;-87
2022/10/15 03:39:17;;;;;;;0.73;0.60;;;14.00;99.90;;;;;;6261171;22;20024;-86
2022/10/15 03:42:04;;;;;;;0.93;0.90;;;14.00;99.90;;;;;;6255615;22;20016;-87
2022/10/15 03:44:52;;;;;;;3.03;0.50;;;14.00;99.90;;;;;;6275893;22;20030;-87
2022/10/15 03:47:39;;;;;;;0.70;0.70;;;14.00;99.90;;;;;;6248557;23;20126;-88
2022/10/15 03:50:27;;;;;;;1.42;0.70;;;14.00;99.90;;;;;;6222579;23;20353;-86
2022/10/15 03:53:14;;;;;;;3.22;0.47;;;14.00;99.90;;;;;;6245468;23;20023;-88
2022/10/15 03:56:07;;;;;;;0.52;0.52;;;14.00;99.90;;;;;;6246103;23;20043;-88
2022/10/15 03:58:54;;;;;;;;;;;14.00;99.90;;;;;;6226183;23;20047;-86
2022/10/15 04:01:43;;;;;;;2.80;0.40;;;14.00;99.90;;;;;;6227382;22;19919;-89
2022/10/15 04:04:31;;;;;;;0.77;0.40;;;14.00;99.90;;;;;;6226396;23;20034;-87
2022/10/15 04:07:22;;;;;;;1.10;0.50;;;14.10;99.90;;;;;;6224703;23;20423;-89
2022/10/15 04:10:10;;;;;;;3.17;1.80;;;14.10;99.90;;;;;;6247317;23;20035;-89
2022/10/15 04:12:59;;;;;;;1.20;1.10;;;14.10;99.90;;;;;;6254556;23;20080;-86
2022/10/15 04:15:47;;;;;;;0.40;0.40;;;14.10;99.90;;;;;;6253289;23;20055;-87
2022/10/15 04:18:35;;;;;;;0.90;0.55;;;14.10;99.90;;;;;;6250991;23;20024;-86
2022/10/15 04:21:22;;;;;;;0.45;0.45;;;14.10;99.90;;;;;;6251848;23;20370;-86
2022/10/15 04:24:09;;;;;;;2.40;0.60;;;14.10;99.90;;;;;;6248433;23;20020;-87
2022/10/15 04:27:01;;;;;;;3.95;0.50;;;14.00;99.90;;;;;;6247365;23;20023;-86
2022/10/15 04:29:49;;;;;;;0.40;0.40;;;14.00;99.90;;;;;;6226234;23;20031;-86
2022/10/15 04:32:36;;;;;;;1.98;0.50;;;14.00;99.90;;;;;;6225631;23;20095;-86
2022/10/15 04:35:23;;;;;;;0.85;0.68;;;14.00;99.90;;;;;;6228212;23;20114;-87
2022/10/15 04:38:10;;;;;;;1.15;0.70;;;14.00;99.90;;;;;;6245440;23;20098;-86
2022/10/15 04:41:05;;;;;;;2.50;0.77;;;14.00;99.90;;;;;;6227252;23;20035;-87
2022/10/15 04:43:53;;;;;;;1.17;0.60;;;13.90;99.90;;;;;;6225578;23;20044;-88
2022/10/15 04:46:40;;;;;;;0.77;0.57;;;13.90;99.90;;;;;;6248162;23;20024;-86
2022/10/15 04:49:28;;;;;;;1.30;0.47;;;13.90;99.90;;;;;;6246815;23;20082;-87
2022/10/15 04:52:17;;;;;;;0.50;0.50;;;13.90;99.90;;;;;;6249535;22;20715;-85
2022/10/15 04:55:07;;;;;;;0.80;0.47;;;13.80;99.90;;;;;;6246041;23;20028;-87
2022/10/15 04:57:54;;;;;;;1.15;0.68;;;13.80;99.90;;;;;;6246959;23;20027;-85
2022/10/15 05:00:41;;;;;;;1.17;0.80;;;13.80;99.90;;;;;;6246358;23;20059;-86
2022/10/15 05:03:30;;;;;;;0.68;0.60;;;13.80;99.90;;;;;;6248109;23;20020;-85
2022/10/15 05:06:22;;;;;;;1.75;0.80;;;13.80;99.90;;;;;;6248305;23;20103;-88
2022/10/15 05:09:13;;;;;;;21.33;11.73;;;13.80;99.90;;;;;;6247268;23;20035;-87
2022/10/15 05:12:03;;;;;;;2.03;1.13;;;13.80;99.90;;;;;;6247901;23;20447;-87
2022/10/15 05:14:50;;;;;;;2.47;1.35;;;13.80;99.90;;;;;;6225209;23;20098;-88
2022/10/15 05:17:38;;;;;;;3.03;1.05;;;13.70;99.90;;;;;;6245876;23;20020;-88
2022/10/15 05:21:13;;;;;;;1.33;1.00;;;13.70;99.90;;;;;;6226715;23;20336;-89
2022/10/15 05:24:20;;;;;;;1.05;0.88;;;13.70;99.90;;;;;;6248001;23;20099;-89
2022/10/15 05:31:22;;;;;;;4.30;0.82;;;13.60;99.90;;;;;;6247614;23;20031;-89
2022/10/15 05:34:19;;;;;;;1.65;0.70;;;13.60;99.90;;;;;;6247134;23;20020;-90
2022/10/15 05:37:07;;;;;;;2.88;1.08;;;13.60;99.90;;;;;;6247784;23;20420;-87
2022/10/15 05:39:55;;;;;;;2.55;1.10;;;13.60;99.90;;;;;;6249265;23;20050;-91
2022/10/15 05:42:55;;;;;;;3.00;1.10;;;13.60;99.90;;;;;;6249109;23;20020;-88
2022/10/15 05:45:42;;;;;;;1.75;0.93;;;13.60;99.90;;;;;;6255345;22;20078;-88
2022/10/15 05:48:30;;;;;;;0.70;0.70;;;13.50;99.90;;;;;;6255396;22;20055;-88
2022/10/15 05:51:17;;;;;;;5.50;1.00;;;13.60;99.90;;;;;;6255162;22;20110;-88
2022/10/15 05:54:05;;;;;;;3.30;0.95;;;13.60;99.90;;;;;;6255845;22;20055;-87
2022/10/15 05:56:54;;;;;;;0.70;0.65;;;13.50;99.90;;;;;;6278246;22;20074;-86
2022/10/15 05:59:43;;;;;;;0.90;0.80;;;13.50;99.90;;;;;;6278870;22;20038;-86
2022/10/15 06:02:30;;;;;;;4.32;0.82;;;13.50;99.90;;;;;;6279551;22;20153;-86
2022/10/15 06:05:18;;;;;;;2.70;0.95;;;13.50;99.90;;;;;;6279897;22;20024;-86
2022/10/15 06:08:05;;;;;;;3.22;0.68;;;13.50;99.90;;;;;;6280590;22;20038;-89
2022/10/15 06:11:06;;;;;;;3.10;0.80;;;13.50;99.90;;;;;;6277295;22;20102;-89
2022/10/15 06:13:55;;;;;;;1.05;0.60;;;13.50;99.90;;;;;;6257891;22;20027;-89
2022/10/15 06:16:42;;;;;;;3.20;0.95;;;13.60;99.90;;;;;;6281028;22;20027;-90
2022/10/15 06:19:30;;;;;;;2.05;0.90;;;13.60;99.90;;;;;;6280217;22;20157;-91
2022/10/15 06:26:24;;;;;;;4.10;1.17;;;13.60;99.90;;;;;;6277858;22;20027;-91
2022/10/15 06:29:17;;;;;;;3.17;0.93;;;13.50;99.90;;;;;;6279599;22;20038;-91
2022/10/15 06:32:08;;;;;;;;;;;13.50;99.90;;;;;;6278114;22;20066;-92
2022/10/15 06:34:55;;;;;;;0.98;0.90;;;13.60;99.90;;;;;;6277446;22;19919;-90
2022/10/15 06:38:04;;;;;;;1.48;0.90;;;13.60;99.90;;;;;;6279497;22;20110;-88
2022/10/15 06:45:35;;;;;;;3.67;1.05;;;13.60;99.90;;;;;;6156576;23;20020;-88
2022/10/15 06:49:00;;;;;;;1.83;0.98;;;13.60;99.90;;;;;;6155307;23;20039;-90
2022/10/15 06:57:05;;;;;;;2.17;1.10;;;13.60;99.90;;;;;;6062530;23;20403;-90
2022/10/15 07:00:35;;;;;;;4.65;1.27;;;13.60;99.90;;;;;;6067801;23;20086;-89
2022/10/15 07:03:37;;;;;;;4.40;1.00;;;13.70;1.00;;;;;;5980778;23;20066;-90
2022/10/15 07:07:03;;;;;;;1.08;0.90;;;13.70;1.00;;;;;;5979979;23;20520;-91
2022/10/15 07:10:31;;;;;;;2.28;1.00;;;13.70;1.00;;;;;;6064876;23;20042;-88
2022/10/15 07:14:11;;;;;;;1.15;0.90;;;13.70;1.00;;;;;;6182932;23;20028;-91
2022/10/15 07:17:08;;;;;;;3.13;0.93;;;13.80;1.00;;;;;;6183831;23;20029;-89
2022/10/15 07:20:07;;;;;;;3.72;1.05;;;13.80;17.50;;;;;;6187121;23;20034;-89
2022/10/15 07:23:01;;;;;;;1.48;1.02;;;13.80;22.90;;;;;;6173112;23;20057;-92
2022/10/15 07:30:32;;;;;;;1.05;0.90;;;13.90;92.20;;;;;;6202226;23;20009;-92
2022/10/15 07:41:30;;;;;;;2.63;1.10;;;14.00;99.90;;;;;;6164243;23;20017;-90
2022/10/15 07:44:20;;;;;;;2.15;0.90;;;14.00;94.80;;;;;;6160448;23;20123;-89
2022/10/15 07:47:15;;;;;;;1.05;0.75;;;14.10;99.90;;;;;;6160167;22;20025;-88
2022/10/15 07:50:02;;;;;;;1.52;0.75;;;14.10;99.90;;;;;;6252300;23;20032;-90
2022/10/15 07:52:54;;;;;;;2.50;0.73;;;14.20;99.90;;;;;;6251216;22;20016;-92
2022/10/15 07:55:54;;;;;;;0.85;0.80;;;14.20;99.90;;;;;;6248938;23;20042;-92
2022/10/15 07:58:50;;;;;;;0.93;0.75;;;14.10;99.90;;;;;;6246939;23;20020;-89
2022/10/15 08:01:41;;;;;;;2.10;0.98;;;14.20;99.90;;;;;;6251847;22;20024;-91
2022/10/15 08:04:52;;;;;;;1.70;0.70;;;14.20;99.90;;;;;;6227379;23;20024;-90
2022/10/15 08:07:44;;;;;;;1.10;1.00;;;14.30;99.90;;;;;;6250325;22;20166;-90
2022/10/15 08:11:40;;;;;;;1.77;0.90;;;14.20;99.90;;;;;;6169611;23;20440;-88
2022/10/15 08:18:53;;;;;;;0.90;0.77;;;14.30;99.90;;;;;;6213831;23;20024;-90
2022/10/15 08:21:44;;;;;;;1.02;0.70;;;14.40;99.90;;;;;;6174924;23;20082;-87
2022/10/15 08:24:37;;;;;;;1.58;0.60;;;14.40;99.90;;;;;;6193869;23;20328;-89
2022/10/15 08:28:08;;;;;;;0.50;0.50;;;14.40;99.90;;;;;;6198738;23;20024;-90
2022/10/15 08:30:58;;;;;;;1.35;0.40;;;14.40;99.90;;;;;;6194170;23;20091;-90
2022/10/15 08:33:51;;;;;;;1.70;0.60;;;14.50;99.90;;;;;;6193227;23;20052;-91
2022/10/15 08:41:14;;;;;;;0.95;0.77;;;14.70;99.90;;;;;;6214963;23;20012;-88
2022/10/15 08:48:05;;;;;;;2.53;0.50;;;14.80;99.90;;;;;;6229886;23;20020;-88
2022/10/15 08:55:19;;;;;;;2.33;0.57;;;15.00;99.90;;;;;;6246523;23;20014;-90
2022/10/15 08:58:40;;;;;;;1.20;0.70;;;15.10;99.90;;;;;;6209152;23;20031;-89
2022/10/15 09:01:54;;;;;;;1.35;0.55;;;15.20;99.90;;;;;;6224022;23;20034;-87
2022/10/15 09:05:42;;;;;;;1.38;0.90;;;15.30;24.50;;;;;;6223810;23;20020;-88
2022/10/15 09:08:41;;;;;;;1.15;0.50;;;15.40;99.90;;;;;;6225890;23;20424;-90
2022/10/15 09:11:57;;;;;;;0.82;0.70;;;15.40;99.90;;;;;;6227968;23;20375;-89
2022/10/15 09:14:59;;;;;;;2.58;0.55;;;15.60;1.00;;;;;;6249716;23;20138;-87
2022/10/15 09:18:21;;;;;;;1.27;0.55;;;15.60;99.90;;;;;;6228929;23;20028;-90
2022/10/15 09:21:28;;;;;;;0.50;0.50;;;15.80;99.90;;;;;;6225840;23;20047;-89
2022/10/15 09:33:35;;;;;;;0.93;0.43;;;15.70;31.30;;;;;;6235057;22;20020;-87
2022/10/15 09:36:32;;;;;;;0.68;0.50;;;15.70;99.90;;;;;;6249029;22;20048;-89
2022/10/15 09:40:00;;;;;;;0.60;0.50;;;15.80;99.90;;;;;;6247550;23;20077;-90
2022/10/15 09:42:51;;;;;;;3.10;1.02;;;15.80;1.00;;;;;;6250410;23;20024;-89
2022/10/15 09:45:39;;;;;;;0.60;0.50;;;15.70;1.00;;;;;;6246961;23;20020;-89
2022/10/15 09:48:32;;;;;;;2.58;0.60;;;15.60;99.90;;;;;;6246299;23;20138;-87
2022/10/15 09:51:28;;;;;;;1.50;0.68;;;15.50;99.90;;;;;;6250398;22;20024;-89
2022/10/15 09:54:46;;;;;;;2.38;0.70;;;15.60;99.90;;;;;;6246030;22;20028;-90
2022/10/15 09:57:39;;;;;;;2.13;0.60;;;15.90;1.00;;;;;;6247792;23;20385;-88
2022/10/15 10:01:06;;;;;;;0.75;0.70;;;16.40;99.90;;;;;;6247461;23;20020;-89
2022/10/15 10:04:18;;;;;;;1.75;0.70;;;16.80;99.90;;;;;;6247177;23;20443;-89
2022/10/15 10:07:09;;;;;;;1.05;0.50;;;17.30;1.00;;;;;;6250498;23;20028;-89
2022/10/15 10:10:01;;;;;;;1.50;0.60;;;18.20;99.90;;;;;;6251571;23;20028;-91
2022/10/15 10:12:49;;;;;;;1.88;0.70;;;18.20;99.90;;;;;;6251243;23;20028;-89
2022/10/15 10:15:40;;;;;;;4.28;0.70;;;18.10;99.90;;;;;;6252989;23;20111;-91
2022/10/15 10:18:31;;;;;;;;;;;18.20;93.80;;;;;;6258158;22;20029;-90
2022/10/15 10:21:25;;;;;;;1.52;0.85;;;19.00;20.60;;;;;;6280851;22;19938;-92
2022/10/15 10:24:30;;;;;;;2.65;0.68;;;19.50;1.00;;;;;;6264970;22;20048;-89
2022/10/15 10:27:39;;;;;;;3.75;0.80;;;20.30;1.00;;;;;;6262876;22;20023;-91
2022/10/15 10:30:49;;;;;;;3.67;0.85;;;20.70;99.90;;;;;;6257669;22;20028;-92
2022/10/15 10:37:52;;;;;;;8.55;1.10;;;20.10;99.90;;;;;;6291833;22;20033;-90
2022/10/15 10:40:54;;;;;;;3.03;0.70;;;20.30;99.90;;;;;;6292185;22;20034;-90
2022/10/15 10:43:53;;;;;;;3.60;0.77;;;20.80;99.90;;;;;;6268134;22;20023;-88
2022/10/15 10:46:40;;;;;;;2.83;0.80;;;21.00;99.90;;;;;;6292191;22;20030;-88
2022/10/15 10:49:36;;;;;;;1.30;0.60;;;20.30;99.90;;;;;;6295646;22;20060;-87
2022/10/15 10:52:31;;;;;;;2.97;0.80;;;19.10;99.90;;;;;;6293573;22;20051;-89
2022/10/15 10:55:23;;;;;;;2.05;0.75;;;18.50;99.90;;;;;;6260367;22;20034;-87
2022/10/15 10:58:19;;;;;;;2.47;0.70;;;18.10;99.90;;;;;;6285259;22;20027;-89
2022/10/15 11:01:15;;;;;;;0.83;0.70;;;17.80;99.90;;;;;;6258617;22;20027;-86
2022/10/15 11:04:03;;;;;;;4.13;0.95;;;17.60;99.90;;;;;;6279447;22;20307;-86
2022/10/15 11:07:08;;;;;;;2.08;0.82;;;17.70;1.00;;;;;;6279360;22;20065;-89
2022/10/15 11:10:08;;;;;;;1.75;0.63;;;18.10;99.90;;;;;;6276452;22;20020;-89
2022/10/15 11:13:12;;;;;;;5.20;0.95;;;18.10;99.90;;;;;;6257147;22;20027;-89
2022/10/15 11:16:08;;;;;;;2.85;1.05;;;17.90;99.90;;;;;;6281118;22;20149;-91
2022/10/15 11:19:13;;;;;;;1.05;0.60;;;17.50;1.00;;;;;;6256593;22;20019;-89
2022/10/15 11:22:19;;;;;;;4.65;1.17;;;17.60;1.00;;;;;;6280077;22;20315;-88
2022/10/15 11:25:30;;;;;;;1.55;0.70;;;17.50;1.00;;;;;;6279730;22;20024;-89
2022/10/15 11:28:36;;;;;;;5.47;0.77;;;17.50;1.00;;;;;;6277931;22;20095;-84
2022/10/15 11:31:42;;;;;;;2.97;0.90;;;17.30;1.00;;;;;;6276643;22;20141;-87
2022/10/15 11:34:49;;;;;;;3.13;0.85;;;17.20;1.00;;;;;;6276500;22;20422;-88
2022/10/15 11:37:59;;;;;;;0.98;0.60;;;17.40;1.00;;;;;;6256274;22;20106;-88
2022/10/15 11:41:09;;;;;;;1.92;0.80;;;17.40;1.00;;;;;;6277987;22;20026;-85
2022/10/15 11:44:17;;;;;;;1.77;0.80;;;17.60;1.00;;;;;;6276109;22;20020;-86
2022/10/15 11:47:19;;;;;;;1.52;0.50;;;18.20;1.00;;;;;;6255209;22;20103;-85
2022/10/15 11:50:13;;;;;;;3.05;1.05;;;18.00;99.90;;;;;;6256150;22;20095;-86
2022/10/15 11:53:13;;;;;;;1.95;0.60;;;17.80;99.90;;;;;;6276740;22;20307;-88
2022/10/15 11:56:13;;;;;;;1.25;0.60;;;17.90;99.90;;;;;;6275746;22;20423;-89
2022/10/15 11:59:12;;;;;;;2.15;0.70;;;18.20;99.90;;;;;;6276917;22;20024;-91
2022/10/15 12:02:07;;;;;;;3.38;0.60;;;18.40;99.90;;;;;;6276030;22;20034;-86
2022/10/15 12:05:26;;;;;;;1.40;0.52;;;18.50;99.90;;;;;;6277987;22;20034;-85
2022/10/15 12:08:18;;;;;;;1.17;0.70;;;18.50;99.90;;;;;;6276476;22;20024;-86
2022/10/15 12:11:20;;;;;;;2.17;0.50;;;18.40;99.90;;;;;;6278996;22;20055;-88
2022/10/15 12:14:40;;;;;;;2.03;0.50;;;18.20;99.90;;;;;;6279782;22;20101;-86
2022/10/15 12:17:54;;;;;;;1.05;0.60;;;17.80;99.90;;;;;;6256830;22;20031;-88
2022/10/15 12:20:44;;;;;;;3.10;0.70;;;17.70;99.90;;;;;;6279547;22;20099;-87
2022/10/15 12:23:38;;;;;;;1.98;0.90;;;17.60;99.90;;;;;;6254237;22;20468;-86
2022/10/15 12:26:31;;;;;;;3.35;0.68;;;17.20;99.90;;;;;;6255275;22;20034;-89
2022/10/15 12:29:28;;;;;;;3.38;1.00;;;16.70;1.00;;;;;;6275646;22;20079;-87
2022/10/15 12:32:21;;;;;;;2.60;0.82;;;16.20;1.00;;;;;;6280109;22;20023;-88
2022/10/15 12:35:15;;;;;;;2.42;0.80;;;16.10;16.80;;;;;;6280077;22;20432;-88
2022/10/15 12:38:23;;;;;;;2.90;0.70;;;16.10;33.30;;;;;;6276011;22;20470;-89
2022/10/15 12:41:13;;;;;;;1.30;0.77;;;16.20;1.00;;;;;;6280517;22;20052;-89
2022/10/15 12:44:45;;;;;;;9.18;1.23;;;16.30;1.00;;;;;;6281860;22;20449;-85
2022/10/15 12:48:18;;;;;;;1.00;0.70;;;16.40;1.00;;;;;;6280676;22;20033;-89
2022/10/15 12:51:21;;;;;;;1.15;0.90;;;16.60;1.00;;;;;;6281257;22;20032;-92
2022/10/15 12:54:38;;;;;;;2.13;0.60;;;17.60;1.00;;;;;;6280002;22;20051;-89
2022/10/15 12:57:35;;;;;;;3.30;0.90;;;18.10;99.90;;;;;;6285493;22;20023;-91
2022/10/15 13:00:38;;;;;;;0.82;0.70;;;18.30;99.90;;;;;;6261390;22;20405;-90
2022/10/15 13:03:38;;;;;;;2.72;1.30;;;18.90;99.90;;;;;;6285519;22;20020;-88
2022/10/15 13:06:37;;;;;;;2.70;1.17;;;19.60;99.90;;;;;;6283357;22;20391;-90
2022/10/15 13:09:29;;;;;;;2.67;1.05;;;19.00;99.90;;;;;;6262365;22;20035;-90
2022/10/15 13:12:28;;;;;;;2.55;0.90;;;18.10;99.90;;;;;;6264495;22;20071;-90
2022/10/15 13:15:26;;;;;;;1.35;1.10;;;17.70;99.90;;;;;;6271888;22;20076;-86
2022/10/15 13:18:55;;;;;;;2.85;0.93;;;17.60;99.90;;;;;;6276052;22;20027;-90
2022/10/15 13:22:01;;;;;;;2.67;0.90;;;17.20;99.90;;;;;;6254713;22;20049;-87
2022/10/15 13:24:49;;;;;;;3.33;1.05;;;17.10;1.00;;;;;;6272326;22;20028;-90
2022/10/15 13:27:57;;;;;;;1.67;0.80;;;16.90;1.00;;;;;;6272183;22;20024;-94
2022/10/15 13:30:48;;;;;;;2.60;0.88;;;16.70;1.00;;;;;;6289151;22;20354;-90
2022/10/15 13:33:52;;;;;;;3.13;1.00;;;16.50;1.00;;;;;;6287909;22;20308;-89
2022/10/15 13:36:39;;;;;;;1.25;0.80;;;16.40;1.00;;;;;;6290986;22;20047;-91
2022/10/15 13:39:44;;;;;;;4.43;1.10;;;16.30;1.00;;;;;;6267750;22;20045;-91
2022/10/15 13:42:59;;;;;;;7.60;0.80;;;16.10;92.10;;;;;;6261998;22;20035;-90
2022/10/15 13:46:05;;;;;;;1.50;1.15;;;15.90;99.90;;;;;;6267462;22;20430;-90
2022/10/15 13:48:57;;;;;;;2.72;0.90;;;15.90;99.90;;;;;;6283557;22;20123;-88
2022/10/15 13:51:51;;;;;;;2.05;1.00;;;15.90;99.90;;;;;;6286631;22;20102;-90
2022/10/15 13:54:41;;;;;;;1.73;0.88;;;16.00;99.90;;;;;;6264130;22;20080;-92
2022/10/15 13:57:28;;;;;;;2.25;0.90;;;16.00;99.90;;;;;;6285957;22;20376;-91
2022/10/15 14:00:35;;;;;;;4.20;1.10;;;16.10;75.80;;;;;;6257507;22;20335;-88
2022/10/15 14:03:26;;;;;;;1.73;0.95;;;16.20;74.00;;;;;;6284979;22;20028;-91
2022/10/15 14:06:17;;;;;;;1.10;0.80;;;16.30;26.00;;;;;;6288778;22;20396;-90
2022/10/15 14:09:25;;;;;;;2.22;0.98;;;16.40;1.80;;;;;;6262284;22;20034;-89
2022/10/15 14:12:16;;;;;;;3.47;0.80;;;16.40;1.00;;;;;;6262002;22;20027;-88
2022/10/15 14:15:38;;;;;;;2.50;0.90;;;16.40;1.00;;;;;;6261931;22;20124;-90
2022/10/15 14:18:36;;;;;;;3.45;1.10;;;16.40;1.00;;;;;;6283125;22;20318;-87
2022/10/15 14:22:08;;;;;;;4.18;1.50;;;16.50;1.00;;;;;;6281744;22;20112;-85
2022/10/15 14:24:56;;;;;;;4.00;1.20;;;16.50;1.00;;;;;;6258083;22;20039;-85
2022/10/15 14:28:01;;;;;;;2.53;1.40;;;16.50;1.00;;;;;;6277499;22;20095;-87
2022/10/15 14:38:41;;;;;;;4.10;1.20;;;17.20;1.00;;;;;;6281852;22;20437;-88
2022/10/15 14:54:18;;;;;;;1.45;0.93;;;17.10;1.00;;;;;;6174013;22;20041;-90
2022/10/15 14:57:23;;;;;;;3.00;1.38;;;17.10;1.00;;;;;;6268031;22;20034;-85
2022/10/15 15:00:43;;;;;;;2.70;1.20;;;17.00;1.00;;;;;;6259118;22;20111;-87
2022/10/15 15:03:46;;;;;;;1.55;0.85;;;17.10;1.00;;;;;;6281252;22;20024;-86
2022/10/15 15:06:35;;;;;;;2.47;0.80;;;17.20;1.00;;;;;;6285355;22;20023;-86
2022/10/15 15:13:20;;;;;;;2.97;1.23;;;17.30;1.00;;;;;;6285156;22;20045;-90
2022/10/15 15:16:17;;;;;;;1.60;0.65;;;17.20;1.00;;;;;;6267078;22;20095;-90
2022/10/15 15:19:07;;;;;;;3.67;1.80;;;17.10;1.00;;;;;;6285649;22;20314;-92
2022/10/15 15:21:58;;;;;;;1.73;0.93;;;17.10;1.00;;;;;;6284132;22;20023;-91
2022/10/15 15:24:45;;;;;;;1.60;0.70;;;17.10;1.00;;;;;;6287267;22;20023;-90
2022/10/15 15:27:36;;;;;;;2.83;1.02;;;16.90;1.00;;;;;;6262511;22;20415;-87
2022/10/15 15:30:27;;;;;;;3.40;0.90;;;16.70;1.00;;;;;;6282180;22;20039;-87
2022/10/15 15:33:14;;;;;;;1.25;0.70;;;16.60;1.00;;;;;;6280679;22;20114;-86
2022/10/15 15:36:15;;;;;;;0.80;0.60;;;16.40;1.00;;;;;;6282748;22;20102;-92
2022/10/15 15:39:09;;;;;;;2.95;0.73;;;16.40;1.00;;;;;;6284040;22;20034;-89
2022/10/15 15:41:56;;;;;;;2.03;0.90;;;16.30;1.00;;;;;;6296464;22;20043;-90
2022/10/15 15:44:44;;;;;;;2.20;0.82;;;16.30;1.00;;;;;;6296189;22;20044;-90
2022/10/15 15:47:31;;;;;;;2.28;0.82;;;16.20;1.00;;;;;;6296245;22;20110;-91
2022/10/15 15:50:20;;;;;;;2.67;0.93;;;16.20;1.00;;;;;;6273420;22;20027;-89
2022/10/15 15:53:10;;;;;;;3.83;1.48;;;16.10;1.00;;;;;;6269305;22;20040;-86
2022/10/15 15:55:57;;;;;;;2.30;1.08;;;16.10;1.00;;;;;;6296256;22;20325;-91
2022/10/15 15:58:44;;;;;;;3.00;1.00;;;16.10;1.00;;;;;;6295858;22;20028;-90
2022/10/15 16:01:34;;;;;;;5.75;1.08;;;16.10;1.00;;;;;;6274203;22;20084;-86
2022/10/15 16:04:25;;;;;;;2.45;0.80;;;16.10;1.00;;;;;;6272457;22;20054;-90
2022/10/15 16:07:12;;;;;;;2.50;0.95;;;16.00;1.00;;;;;;6298346;22;20055;-90
2022/10/15 16:09:59;;;;;;;2.53;0.90;;;16.00;1.00;;;;;;6293017;22;20030;-89
2022/10/15 16:12:49;;;;;;;0.80;0.80;;;15.90;1.00;;;;;;6295122;22;20023;-94
2022/10/15 16:15:44;;;;;;;3.22;1.10;;;15.70;1.00;;;;;;6298169;22;20053;-90
2022/10/15 16:18:36;;;;;;;1.65;1.15;;;15.70;1.00;;;;;;6299009;22;20071;-90
2022/10/15 16:22:12;;;;;;;3.72;1.10;;;15.60;8.70;;;;;;6298948;22;20058;-92
2022/10/15 16:25:01;;;;;;;2.85;1.40;;;15.50;35.90;;;;;;6274404;22;20051;-90
2022/10/15 16:27:50;;;;;;;5.10;1.17;;;15.40;81.70;;;;;;6273360;22;20066;-91
2022/10/15 16:30:40;;;;;;;3.22;1.00;;;15.30;99.90;;;;;;6300126;22;20075;-86
2022/10/15 16:33:28;;;;;;;4.30;1.33;;;15.30;99.90;;;;;;6306549;22;20011;-88
2022/10/15 16:36:16;;;;;;;2.65;1.00;;;15.30;99.90;;;;;;6303608;22;20012;-86
2022/10/15 16:39:04;;;;;;;3.92;1.05;;;15.30;99.90;;;;;;6245685;22;20015;-86
2022/10/15 16:41:56;;;;;;;1.73;1.20;;;15.30;99.90;;;;;;6242291;23;20012;-89
2022/10/15 16:44:43;;;;;;;3.95;1.23;;;15.30;99.90;;;;;;6234309;22;20234;-86
2022/10/15 16:47:31;;;;;;;3.67;1.45;;;15.30;99.90;;;;;;6234306;22;20104;-86